Terminal Aerodrome Forecast
Issued by NWS

Home | Current Version | Previous Version | Text Only | Print | Product List | Glossary On
Versions: 1 2 3 4 5 6 7 8 9 10 11 12 13 14 15 16 17 18
000
FTUS46 KSGX 251400 AAA
TAFCRQ
TAF AMD
KCRQ 251408Z 2514/2612 VRB04KT P6SM FEW015 BKN070
     FM251800 24010KT P6SM SCT200
     FM260100 VRB04KT P6SM SCT200
     FM260400 VRB04KT P6SM OVC010=

USA.gov is the U.S. government's official web portal to all federal, state and local government web resources and services.